Flight Track Log - Related Links

Times and Time Zones

All times are in EDT time to prevent confusion due to time zone crossing. See the N960DL flight status page for this flight to view local times or setup timezone preferences in your user account.

Time Position Orientation Groundspeed Altitude Reporting Facility
EDT Latitude Longitude Course Direction KTS MPH feet Rate Location/Type
Sat 11:58:20 AM 33.6500 -84.3833 North 164 189 2,300  Level Atlanta TRACON
Sat 11:59:20 AM 33.6500 -84.3167 90° East 244 281 4,200 2,524 Climbing Atlanta TRACON
Sat 12:00:00 PM 33.9043 -84.5750 342° North  Level FlightAware Approximate
Sat 12:00:26 PM 33.6833 -84.2167 68° East 278 320 7,600  Level Atlanta TRACON
Sat 12:01:00 PM 34.0172 -84.6201 342° North  Level FlightAware Approximate
Sat 12:01:20 PM 33.7333 -84.1833 29° Northeast 303 349 9,900  Level Atlanta TRACON
Sat 12:02:00 PM 34.1300 -84.6652 342° North  Level FlightAware Approximate
Sat 12:02:20 PM 33.8333 -84.2000 352° North 373 429 10,700  Level Atlanta TRACON
Sat 12:03:00 PM 34.2443 -84.7000 North  Level FlightAware Approximate
Sat 12:04:44 PM 34.0108 -84.4122 315° West 420 483 15,800  Level Atlanta Center
Sat 12:05:44 PM 34.1042 -84.5256 315° West 415 478 18,400 2,250 Climbing Atlanta Center
Sat 12:06:44 PM 34.1789 -84.6189 314° West 429 494 20,300 1,950 Climbing Atlanta Center
Sat 12:07:44 PM 34.2683 -84.7175 318° Northwest 429 494 22,300 1,950 Climbing Atlanta Center
Sat 12:08:44 PM 34.3869 -84.7714 339° North 434 499 24,200 1,950 Climbing Atlanta Center
Sat 12:09:44 PM 34.5036 -84.8228 340° North 447 514 26,200 2,050 Climbing Atlanta Center
Sat 12:10:44 PM 34.6344 -84.8819 340° North 454 522 28,300 1,850 Climbing Atlanta Center
Sat 12:11:44 PM 34.7469 -84.9336 339° North 448 516 29,900 1,600 Climbing Atlanta Center
Sat 12:12:44 PM 34.8633 -84.9856 340° North 443 510 31,500 1,300 Climbing Atlanta Center
Sat 12:13:44 PM 34.9653 -85.0297 340° North 443 510 32,500 950 Climbing Atlanta Center
Sat 12:14:44 PM 35.0797 -85.0819 340° North 443 510 33,400 852 Climbing Atlanta Center
Sat 12:16:19 PM 35.2153 -85.2564 314° West 439 505 34,700 735 Climbing Memphis Center
Sat 12:17:19 PM 35.2953 -85.3786 309° West 450 518 35,300 550 Climbing Memphis Center
Sat 12:18:19 PM 35.3731 -85.4986 309° West 456 525 35,800 350 Climbing Memphis Center
Sat 12:19:19 PM 35.4528 -85.6189 309° West 456 525 36,000 100 Climbing Memphis Center
Sat 12:20:19 PM 35.5308 -85.7472 307° West 466 536 36,000  Level Memphis Center
Sat 12:21:19 PM 35.5981 -85.8814 302° West 466 536 36,000  Level Memphis Center
Sat 12:22:19 PM 35.6639 -86.0258 299° West 471 542 36,000  Level Memphis Center
Sat 12:23:19 PM 35.7269 -86.1633 299° West 471 542 36,000  Level Memphis Center
Sat 12:24:19 PM 35.7897 -86.2983 300° West 464 534 36,000  Level Memphis Center
Sat 12:25:19 PM 35.8528 -86.4386 299° West 464 534 36,000  Level Memphis Center
Sat 12:26:19 PM 35.9219 -86.5917 299° West 464 534 36,000  Level Memphis Center
Sat 12:27:19 PM 35.9867 -86.7322 300° West 464 534 36,000  Level Memphis Center
Sat 12:28:19 PM 36.0469 -86.8708 298° West 471 542 36,000  Level Memphis Center
Sat 12:29:19 PM 36.1114 -87.0144 299° West 471 542 36,000  Level Memphis Center
Sat 12:30:19 PM 36.1778 -87.1558 300° West 471 542 36,000  Level Memphis Center
Sat 12:31:19 PM 36.2372 -87.2794 301° West 471 542 36,000  Level Memphis Center
Sat 12:32:19 PM 36.3008 -87.4186 300° West 466 536 36,000  Level Memphis Center
Sat 12:33:19 PM 36.3647 -87.5608 299° West 466 536 36,000  Level Memphis Center
Sat 12:34:19 PM 36.4261 -87.6978 299° West 471 542 36,000  Level Memphis Center
Sat 12:35:19 PM 36.4872 -87.8378 299° West 465 535 36,000  Level Memphis Center
Sat 12:36:19 PM 36.5506 -87.9781 299° West 470 541 36,000  Level Memphis Center
Sat 12:37:19 PM 36.6031 -88.1056 297° West 465 535 36,000 -200 Level Memphis Center
Sat 12:38:19 PM 36.6703 -88.2564 299° West 465 535 35,600 -800 Descending Memphis Center
Sat 12:39:19 PM 36.7331 -88.3944 300° West 465 535 34,400 -800 Descending Memphis Center
Sat 12:40:19 PM 36.7933 -88.5331 299° West 465 535 34,000 -200 Descending Memphis Center
Sat 12:41:19 PM 36.8539 -88.6794 297° West 470 541 34,000  Level Memphis Center
Sat 12:42:19 PM 36.9161 -88.8233 298° West 470 541 34,000  Level Memphis Center
Sat 12:43:19 PM 36.9761 -88.9650 298° West 470 541 34,000  Level Memphis Center
Sat 12:44:19 PM 37.0381 -89.1119 298° West 470 541 34,000 -2,082 Level Memphis Center
Sat 12:46:35 PM 37.1778 -89.4500 297° West 470 541 27,200 -2,424 Descending Kansas City Center
Sat 12:47:37 PM 37.2519 -89.5811 305° West 471 542 26,000 -581 Descending Kansas City Center
Sat 12:48:39 PM 37.3686 -89.6519 334° Northwest 468 539 26,000  Level Kansas City Center
Sat 12:49:41 PM 37.4883 -89.7178 336° Northwest 469 540 26,000 -435 Level Kansas City Center
Sat 12:50:43 PM 37.6211 -89.7908 336° Northwest 471 542 25,100 -1,935 Descending Kansas City Center
Sat 12:51:45 PM 37.7383 -89.8556 336° Northwest 464 534 22,000 -2,613 Descending Kansas City Center
Sat 12:52:47 PM 37.8611 -89.9228 337° Northwest 447 514 19,700 -1,645 Descending Kansas City Center
Sat 12:53:49 PM 37.9592 -89.9769 336° Northwest 386 444 18,600 -1,694 Descending Kansas City Center
Sat 12:54:51 PM 38.0592 -90.0308 337° Northwest 364 419 16,200 -1,742 Descending Kansas City Center
Sat 12:55:53 PM 38.1558 -90.0853 336° Northwest 368 423 15,000 -1,403 Descending Kansas City Center
Sat 12:56:55 PM 38.2522 -90.1381 337° Northwest 375 432 13,300 -2,032 Descending Kansas City Center
Sat 12:57:57 PM 38.3442 -90.1900 336° Northwest 368 423 10,800 -1,500 Descending Kansas City Center
Sat 12:58:59 PM 38.4350 -90.2400 337° Northwest 348 400 10,200 -968 Descending Kansas City Center
Sat 01:00:01 PM 38.5058 -90.2797 336° Northwest 290 334 8,800 -1,065 Descending Kansas City Center
Sat 01:01:03 PM 38.5800 -90.3211 336° Northwest 289 333 8,000 -484 Descending Kansas City Center
Sat 01:02:05 PM 38.6647 -90.3706 336° Northwest 290 334 7,800 -677 Descending Kansas City Center
Sat 01:03:07 PM 38.6994 -90.4456 301° West 292 336 6,600 -1,403 Descending Kansas City Center
Sat 01:04:09 PM 38.7408 -90.5372 300° West 258 297 4,900 -1,258 Descending Kansas City Center
Sat 01:05:11 PM 38.7717 -90.6036 301° West 228 262 4,000 -871 Descending Kansas City Center

Login

Don't have an account? Register now (free) for customized features, flight alerts, and more!